createdAt,value
2022-10-07T13:06:50.447Z,2.47
2022-10-07T13:09:27.775Z,1.92
2022-10-07T13:12:06.135Z,2.13
2022-10-07T13:14:50.013Z,2.30
2022-10-07T13:17:49.148Z,2.03
2022-10-07T13:20:56.935Z,2.33
2022-10-07T13:23:48.267Z,2.15
2022-10-07T13:32:29.543Z,1.95
2022-10-07T13:35:21.928Z,2.40
2022-10-07T13:37:55.780Z,1.95
2022-10-07T13:40:36.732Z,2.40
2022-10-07T13:43:18.575Z,2.70
2022-10-07T13:45:49.512Z,2.78
2022-10-07T13:48:24.885Z,2.30
2022-10-07T13:50:57.822Z,2.70
2022-10-07T13:53:30.711Z,2.90
2022-10-07T13:56:31.853Z,2.80
2022-10-07T13:58:59.736Z,2.63
2022-10-07T14:01:29.674Z,2.58
2022-10-07T14:04:20.589Z,2.83
2022-10-07T14:07:14.500Z,2.67
2022-10-07T14:09:48.028Z,2.90
2022-10-07T14:12:37.004Z,2.38
2022-10-07T14:15:26.959Z,2.30
2022-10-07T14:18:05.739Z,2.40
2022-10-07T14:20:51.252Z,2.13
2022-10-07T14:23:18.454Z,2.47
2022-10-07T14:25:54.410Z,2.33
2022-10-07T14:28:27.136Z,2.40
2022-10-07T14:31:38.747Z,2.53
2022-10-07T14:34:39.197Z,2.83
2022-10-07T14:40:20.171Z,2.13
2022-10-07T14:42:50.567Z,2.53
2022-10-07T14:45:56.279Z,2.35
2022-10-07T14:48:27.604Z,2.30
2022-10-07T14:50:55.706Z,1.90
2022-10-07T14:53:23.769Z,2.67
2022-10-07T14:55:55.347Z,2.22
2022-10-07T14:58:22.469Z,2.60
2022-10-07T15:00:55.454Z,3.30
2022-10-07T15:03:23.558Z,2.20
2022-10-07T15:05:52.626Z,2.33
2022-10-07T15:08:19.438Z,2.60
2022-10-07T15:10:46.158Z,2.42
2022-10-07T15:13:15.615Z,2.65
2022-10-07T15:15:46.138Z,2.45
2022-10-07T15:18:21.538Z,2.28
2022-10-07T15:20:55.471Z,2.40
2022-10-07T15:23:23.208Z,2.80
2022-10-07T15:25:51.711Z,2.92
2022-10-07T15:28:18.496Z,2.15
2022-10-07T15:31:11.012Z,2.38
2022-10-07T15:33:39.156Z,2.15
2022-10-07T15:36:08.357Z,2.75
2022-10-07T15:38:34.966Z,2.35
2022-10-07T15:41:05.561Z,2.53
2022-10-07T15:43:33.850Z,2.70
2022-10-07T15:46:03.691Z,2.70
2022-10-07T15:48:30.526Z,2.33
2022-10-07T15:51:04.102Z,2.33
2022-10-07T15:53:34.192Z,2.15
2022-10-07T15:56:09.015Z,2.03
2022-10-07T15:58:40.972Z,2.40
2022-10-07T16:01:08.005Z,2.10
2022-10-07T16:03:45.703Z,2.13
2022-10-07T16:06:22.973Z,2.60
2022-10-07T16:08:53.917Z,2.55
2022-10-07T16:11:24.208Z,2.42
2022-10-07T16:14:01.245Z,2.33
2022-10-07T16:16:40.782Z,2.50
2022-10-07T16:19:08.111Z,2.97
2022-10-07T16:21:39.486Z,3.17
2022-10-07T16:24:17.664Z,3.30
2022-10-07T16:26:51.697Z,2.70
2022-10-07T16:29:40.450Z,2.70
2022-10-07T16:32:09.953Z,2.33
2022-10-07T16:34:43.787Z,3.15
2022-10-07T16:37:11.634Z,2.92
2022-10-07T16:39:39.568Z,2.63
2022-10-07T16:42:06.467Z,2.53
2022-10-07T16:44:35.560Z,2.60
2022-10-07T16:47:03.470Z,3.95
2022-10-07T16:49:35.580Z,3.05
2022-10-07T16:52:10.342Z,2.78
2022-10-07T16:54:47.507Z,2.70
2022-10-07T16:57:14.269Z,2.40
2022-10-07T16:59:41.056Z,2.60
2022-10-07T17:05:02.859Z,3.50
2022-10-07T17:07:30.916Z,4.13
2022-10-07T17:09:57.667Z,3.78
2022-10-07T17:12:27.102Z,4.15
2022-10-07T17:17:58.845Z,4.28
2022-10-07T17:20:54.970Z,3.33
2022-10-07T17:23:34.399Z,3.05
2022-10-07T17:26:10.118Z,3.10
2022-10-07T17:42:52.315Z,2.80
2022-10-07T17:45:35.643Z,3.35
2022-10-07T17:48:05.849Z,3.47
2022-10-07T17:50:38.407Z,3.45
2022-10-07T17:53:08.707Z,3.45
2022-10-07T17:55:35.427Z,3.10
2022-10-07T17:58:03.050Z,3.55
2022-10-07T18:00:31.617Z,2.85
2022-10-07T18:02:59.368Z,3.17
2022-10-07T18:05:27.266Z,2.80
2022-10-07T18:07:57.454Z,2.88
2022-10-07T18:10:50.128Z,3.05
2022-10-07T18:13:42.525Z,3.72
2022-10-07T18:16:13.842Z,3.83
2022-10-07T18:18:40.931Z,3.95
2022-10-07T18:21:08.817Z,4.22
2022-10-07T18:23:43.162Z,4.80
2022-10-07T18:26:39.304Z,4.20
2022-10-07T18:29:11.128Z,4.93
2022-10-07T18:32:05.628Z,3.80
2022-10-07T18:34:32.379Z,3.92
2022-10-07T18:37:02.679Z,7.82
2022-10-07T18:39:35.073Z,9.20
2022-10-07T18:42:05.010Z,9.57
2022-10-07T18:44:32.490Z,6.68
2022-10-07T18:47:06.171Z,6.30
2022-10-07T18:49:34.988Z,6.43
2022-10-07T18:52:01.881Z,7.97
2022-10-07T18:54:32.563Z,6.97
2022-10-07T18:57:07.159Z,5.95
2022-10-07T18:59:37.534Z,5.70
2022-10-07T19:02:04.300Z,5.35
2022-10-07T19:04:35.982Z,5.43
2022-10-07T19:07:17.013Z,5.68
2022-10-07T19:09:43.664Z,5.03
2022-10-07T19:12:31.386Z,5.13
2022-10-07T19:15:02.178Z,4.53
2022-10-07T19:17:28.858Z,4.40
2022-10-07T19:20:00.806Z,4.57
2022-10-07T19:22:33.020Z,5.07
2022-10-07T19:25:19.085Z,4.97
2022-10-07T19:27:52.991Z,4.18
2022-10-07T19:30:22.271Z,3.20
2022-10-07T19:32:50.612Z,4.25
2022-10-07T19:35:22.074Z,3.92
2022-10-07T19:37:56.132Z,4.32
2022-10-07T19:43:26.953Z,4.35
2022-10-07T19:46:02.023Z,5.10
2022-10-07T19:48:31.673Z,4.53
2022-10-07T19:51:07.783Z,4.03
2022-10-07T19:53:39.553Z,3.83
2022-10-07T19:56:15.050Z,4.22
2022-10-07T19:59:15.319Z,3.88
2022-10-07T20:01:48.930Z,3.45
2022-10-07T20:07:36.519Z,3.80
2022-10-07T20:10:07.223Z,3.83
2022-10-07T20:12:35.031Z,3.55
2022-10-07T20:15:02.737Z,3.70
2022-10-07T20:17:31.562Z,3.40
2022-10-07T20:19:58.351Z,3.72
2022-10-07T20:22:28.242Z,4.53
2022-10-07T20:42:24.882Z,4.75
2022-10-07T20:44:52.621Z,4.45
2022-10-07T20:47:21.326Z,4.28
2022-10-07T20:49:50.816Z,4.80
2022-10-07T20:52:21.185Z,4.30
2022-10-07T20:54:50.881Z,4.88
2022-10-07T20:57:22.746Z,4.85
2022-10-07T20:59:51.116Z,4.43
2022-10-07T21:02:24.233Z,4.95
2022-10-07T21:04:54.328Z,4.60
2022-10-07T21:07:22.025Z,3.35
2022-10-07T21:09:48.645Z,3.15
2022-10-07T21:12:17.491Z,4.00
2022-10-07T21:14:47.064Z,4.15
2022-10-07T21:17:16.284Z,4.40
2022-10-07T21:19:43.788Z,3.63
2022-10-07T21:22:10.385Z,3.95
2022-10-07T21:24:39.225Z,3.78
2022-10-07T21:27:11.847Z,4.20
2022-10-07T21:32:10.521Z,4.00
2022-10-07T21:34:39.438Z,4.30
2022-10-07T21:37:12.233Z,4.30
2022-10-07T21:39:50.765Z,3.30
2022-10-07T21:42:20.527Z,4.13
2022-10-07T21:50:33.401Z,3.67
2022-10-07T21:53:04.030Z,4.10
2022-10-07T21:55:43.504Z,4.32
2022-10-07T21:59:03.243Z,3.88
2022-10-07T22:01:31.429Z,4.80
2022-10-07T22:04:00.514Z,4.07
2022-10-07T22:06:47.497Z,3.72
2022-10-07T22:09:15.039Z,4.00
2022-10-07T22:11:41.911Z,5.00
2022-10-07T22:14:12.506Z,4.50
2022-10-07T22:16:44.082Z,6.93
2022-10-07T22:19:16.842Z,6.50
2022-10-07T22:21:46.158Z,5.35
2022-10-07T22:24:18.416Z,4.97
2022-10-07T22:26:47.640Z,4.70
2022-10-07T22:29:19.998Z,4.40
2022-10-07T22:31:48.086Z,4.43
2022-10-07T22:34:35.329Z,4.53
2022-10-07T22:37:05.413Z,4.45
2022-10-07T22:39:32.082Z,4.45
2022-10-07T22:42:03.955Z,4.28
2022-10-07T22:44:35.294Z,3.88
2022-10-07T22:47:04.153Z,4.00
2022-10-07T22:49:31.532Z,3.95
2022-10-07T22:52:01.324Z,4.13
2022-10-07T22:54:32.461Z,3.97
2022-10-07T22:56:59.119Z,3.65
2022-10-07T22:59:25.708Z,3.85
2022-10-07T23:01:54.815Z,3.92
2022-10-07T23:04:27.387Z,6.07
2022-10-07T23:06:56.508Z,4.28
2022-10-07T23:09:24.277Z,3.70
2022-10-07T23:11:50.933Z,4.18
2022-10-07T23:14:23.930Z,4.78
2022-10-07T23:16:50.620Z,4.63
2022-10-07T23:19:17.628Z,4.82
2022-10-07T23:21:48.077Z,4.00
2022-10-07T23:24:19.569Z,4.88
2022-10-07T23:26:46.203Z,5.15
2022-10-07T23:29:13.075Z,4.20
2022-10-07T23:31:52.794Z,4.57
2022-10-07T23:34:20.234Z,4.50
2022-10-07T23:36:49.058Z,4.20
2022-10-07T23:39:17.279Z,4.53
2022-10-07T23:41:43.852Z,5.72
2022-10-07T23:44:12.945Z,5.55
2022-10-07T23:46:39.841Z,5.10
2022-10-07T23:49:08.898Z,4.88
2022-10-07T23:51:37.708Z,4.53
2022-10-07T23:54:06.657Z,5.07
2022-10-07T23:56:35.716Z,4.40
2022-10-07T23:59:02.578Z,4.30
